sensor_id;sensor_type;location;lat;lon;timestamp;P1;durP1;ratioP1;P2;durP2;ratioP2
33403;SDS011;19751;40.274;18.268;2022-11-20T00:02:23;42.70;;;9.23;;
33403;SDS011;19751;40.274;18.268;2022-11-20T00:04:49;33.22;;;5.30;;
33403;SDS011;19751;40.274;18.268;2022-11-20T00:07:15;39.80;;;7.70;;
33403;SDS011;19751;40.274;18.268;2022-11-20T00:09:40;44.67;;;8.27;;
33403;SDS011;19751;40.274;18.268;2022-11-20T00:12:06;41.10;;;7.50;;
33403;SDS011;19751;40.274;18.268;2022-11-20T00:14:31;43.03;;;6.70;;
33403;SDS011;19751;40.274;18.268;2022-11-20T00:16:57;33.60;;;6.05;;
33403;SDS011;19751;40.274;18.268;2022-11-20T00:19:23;37.60;;;6.13;;
33403;SDS011;19751;40.274;18.268;2022-11-20T00:21:48;47.78;;;7.32;;
33403;SDS011;19751;40.274;18.268;2022-11-20T00:24:16;34.20;;;5.50;;
33403;SDS011;19751;40.274;18.268;2022-11-20T00:26:42;41.85;;;6.78;;
33403;SDS011;19751;40.274;18.268;2022-11-20T00:29:08;51.78;;;8.95;;
33403;SDS011;19751;40.274;18.268;2022-11-20T00:31:35;45.45;;;6.10;;
33403;SDS011;19751;40.274;18.268;2022-11-20T00:34:01;42.15;;;7.28;;
33403;SDS011;19751;40.274;18.268;2022-11-20T00:36:28;47.83;;;6.03;;
33403;SDS011;19751;40.274;18.268;2022-11-20T00:38:57;42.42;;;6.90;;
33403;SDS011;19751;40.274;18.268;2022-11-20T00:41:24;37.95;;;7.38;;
33403;SDS011;19751;40.274;18.268;2022-11-20T00:43:52;47.97;;;8.15;;
33403;SDS011;19751;40.274;18.268;2022-11-20T00:46:19;33.10;;;6.90;;
33403;SDS011;19751;40.274;18.268;2022-11-20T00:48:47;31.77;;;6.45;;
33403;SDS011;19751;40.274;18.268;2022-11-20T00:51:14;54.10;;;7.72;;
33403;SDS011;19751;40.274;18.268;2022-11-20T00:53:41;38.13;;;7.68;;
33403;SDS011;19751;40.274;18.268;2022-11-20T00:56:08;57.35;;;10.20;;
33403;SDS011;19751;40.274;18.268;2022-11-20T00:58:36;35.03;;;7.15;;
33403;SDS011;19751;40.274;18.268;2022-11-20T01:03:33;41.97;;;7.85;;
33403;SDS011;19751;40.274;18.268;2022-11-20T01:06:01;28.58;;;5.80;;
33403;SDS011;19751;40.274;18.268;2022-11-20T01:08:31;38.58;;;8.70;;
33403;SDS011;19751;40.274;18.268;2022-11-20T01:11:02;42.90;;;6.50;;
33403;SDS011;19751;40.274;18.268;2022-11-20T01:13:30;45.03;;;6.32;;
33403;SDS011;19751;40.274;18.268;2022-11-20T01:16:03;37.08;;;7.47;;
33403;SDS011;19751;40.274;18.268;2022-11-20T01:18:37;34.33;;;5.05;;
33403;SDS011;19751;40.274;18.268;2022-11-20T01:21:08;20.10;;;2.85;;
33403;SDS011;19751;40.274;18.268;2022-11-20T01:23:36;21.55;;;4.10;;
33403;SDS011;19751;40.274;18.268;2022-11-20T01:26:09;23.42;;;4.43;;
33403;SDS011;19751;40.274;18.268;2022-11-20T01:28:37;34.22;;;5.15;;
33403;SDS011;19751;40.274;18.268;2022-11-20T01:31:15;22.13;;;3.97;;
33403;SDS011;19751;40.274;18.268;2022-11-20T01:33:44;18.10;;;5.40;;
33403;SDS011;19751;40.274;18.268;2022-11-20T01:36:11;14.65;;;3.53;;
33403;SDS011;19751;40.274;18.268;2022-11-20T01:38:37;14.70;;;2.78;;
33403;SDS011;19751;40.274;18.268;2022-11-20T01:41:04;15.20;;;2.63;;
33403;SDS011;19751;40.274;18.268;2022-11-20T01:43:30;16.08;;;2.22;;
33403;SDS011;19751;40.274;18.268;2022-11-20T01:45:58;9.38;;;3.25;;
33403;SDS011;19751;40.274;18.268;2022-11-20T01:48:33;23.80;;;3.45;;
33403;SDS011;19751;40.274;18.268;2022-11-20T01:51:48;18.38;;;2.80;;
33403;SDS011;19751;40.274;18.268;2022-11-20T01:53:56;20.20;;;2.70;;
33403;SDS011;19751;40.274;18.268;2022-11-20T01:56:25;16.55;;;3.03;;
33403;SDS011;19751;40.274;18.268;2022-11-20T01:58:54;18.27;;;2.97;;
33403;SDS011;19751;40.274;18.268;2022-11-20T02:01:23;12.50;;;2.97;;
33403;SDS011;19751;40.274;18.268;2022-11-20T02:03:50;14.43;;;2.65;;
33403;SDS011;19751;40.274;18.268;2022-11-20T02:06:20;19.27;;;3.20;;
33403;SDS011;19751;40.274;18.268;2022-11-20T02:08:53;31.55;;;6.32;;
33403;SDS011;19751;40.274;18.268;2022-11-20T02:11:20;37.40;;;7.30;;
33403;SDS011;19751;40.274;18.268;2022-11-20T02:13:46;42.70;;;7.40;;
33403;SDS011;19751;40.274;18.268;2022-11-20T02:18:45;45.60;;;7.10;;
33403;SDS011;19751;40.274;18.268;2022-11-20T02:23:38;38.17;;;5.13;;
33403;SDS011;19751;40.274;18.268;2022-11-20T02:26:10;33.28;;;7.40;;
33403;SDS011;19751;40.274;18.268;2022-11-20T02:28:39;36.72;;;5.88;;
33403;SDS011;19751;40.274;18.268;2022-11-20T02:31:05;38.55;;;6.35;;
33403;SDS011;19751;40.274;18.268;2022-11-20T02:33:30;43.45;;;6.72;;
33403;SDS011;19751;40.274;18.268;2022-11-20T02:35:56;36.17;;;6.22;;
33403;SDS011;19751;40.274;18.268;2022-11-20T02:38:21;34.05;;;7.10;;
33403;SDS011;19751;40.274;18.268;2022-11-20T02:40:47;37.80;;;6.45;;
33403;SDS011;19751;40.274;18.268;2022-11-20T02:43:15;34.63;;;5.88;;
33403;SDS011;19751;40.274;18.268;2022-11-20T02:45:41;32.92;;;6.00;;
33403;SDS011;19751;40.274;18.268;2022-11-20T02:48:06;33.45;;;6.95;;
33403;SDS011;19751;40.274;18.268;2022-11-20T02:50:33;32.45;;;5.90;;
33403;SDS011;19751;40.274;18.268;2022-11-20T02:53:02;42.05;;;7.00;;
33403;SDS011;19751;40.274;18.268;2022-11-20T02:55:27;42.60;;;7.28;;
33403;SDS011;19751;40.274;18.268;2022-11-20T02:57:53;27.95;;;5.75;;
33403;SDS011;19751;40.274;18.268;2022-11-20T03:00:18;49.35;;;8.07;;
33403;SDS011;19751;40.274;18.268;2022-11-20T03:02:45;35.33;;;4.80;;
33403;SDS011;19751;40.274;18.268;2022-11-20T03:05:11;47.17;;;6.90;;
33403;SDS011;19751;40.274;18.268;2022-11-20T03:07:36;44.75;;;5.90;;
33403;SDS011;19751;40.274;18.268;2022-11-20T03:10:02;29.13;;;5.57;;
33403;SDS011;19751;40.274;18.268;2022-11-20T03:12:30;38.22;;;5.72;;
33403;SDS011;19751;40.274;18.268;2022-11-20T03:14:55;37.10;;;6.78;;
33403;SDS011;19751;40.274;18.268;2022-11-20T03:17:21;30.90;;;6.18;;
33403;SDS011;19751;40.274;18.268;2022-11-20T03:19:46;21.58;;;4.07;;
33403;SDS011;19751;40.274;18.268;2022-11-20T03:22:13;10.30;;;2.70;;
33403;SDS011;19751;40.274;18.268;2022-11-20T03:24:39;13.55;;;2.78;;
33403;SDS011;19751;40.274;18.268;2022-11-20T03:27:04;7.95;;;1.98;;
33403;SDS011;19751;40.274;18.268;2022-11-20T03:29:30;22.35;;;3.13;;
33403;SDS011;19751;40.274;18.268;2022-11-20T03:31:55;18.75;;;2.90;;
33403;SDS011;19751;40.274;18.268;2022-11-20T03:34:21;10.57;;;2.45;;
33403;SDS011;19751;40.274;18.268;2022-11-20T03:36:48;6.18;;;2.42;;
33403;SDS011;19751;40.274;18.268;2022-11-20T03:39:13;11.73;;;1.88;;
33403;SDS011;19751;40.274;18.268;2022-11-20T03:41:39;8.48;;;2.15;;
33403;SDS011;19751;40.274;18.268;2022-11-20T03:44:13;6.32;;;2.35;;
33403;SDS011;19751;40.274;18.268;2022-11-20T03:46:38;7.70;;;2.75;;
33403;SDS011;19751;40.274;18.268;2022-11-20T03:49:04;9.35;;;1.88;;
33403;SDS011;19751;40.274;18.268;2022-11-20T03:51:32;8.23;;;1.83;;
33403;SDS011;19751;40.274;18.268;2022-11-20T03:54:00;10.70;;;1.50;;
33403;SDS011;19751;40.274;18.268;2022-11-20T03:56:29;7.18;;;1.70;;
33403;SDS011;19751;40.274;18.268;2022-11-20T03:58:56;12.18;;;1.60;;
33403;SDS011;19751;40.274;18.268;2022-11-20T04:01:40;12.45;;;3.60;;
33403;SDS011;19751;40.274;18.268;2022-11-20T04:04:06;4.82;;;1.27;;
33403;SDS011;19751;40.274;18.268;2022-11-20T04:06:36;8.07;;;1.35;;
33403;SDS011;19751;40.274;18.268;2022-11-20T04:09:03;6.13;;;1.52;;
33403;SDS011;19751;40.274;18.268;2022-11-20T04:11:31;5.38;;;1.20;;
33403;SDS011;19751;40.274;18.268;2022-11-20T04:13:59;7.35;;;1.20;;
33403;SDS011;19751;40.274;18.268;2022-11-20T04:16:28;8.30;;;1.05;;
33403;SDS011;19751;40.274;18.268;2022-11-20T04:18:56;11.50;;;1.35;;
33403;SDS011;19751;40.274;18.268;2022-11-20T04:21:24;9.82;;;2.25;;
33403;SDS011;19751;40.274;18.268;2022-11-20T04:23:50;9.30;;;1.63;;
33403;SDS011;19751;40.274;18.268;2022-11-20T04:26:17;16.42;;;2.20;;
33403;SDS011;19751;40.274;18.268;2022-11-20T04:28:43;13.85;;;2.65;;
33403;SDS011;19751;40.274;18.268;2022-11-20T04:31:10;13.98;;;3.45;;
33403;SDS011;19751;40.274;18.268;2022-11-20T04:33:41;13.38;;;2.53;;
33403;SDS011;19751;40.274;18.268;2022-11-20T04:36:07;24.13;;;4.85;;
33403;SDS011;19751;40.274;18.268;2022-11-20T04:38:36;22.77;;;3.72;;
33403;SDS011;19751;40.274;18.268;2022-11-20T04:41:03;27.67;;;3.78;;
33403;SDS011;19751;40.274;18.268;2022-11-20T04:43:30;29.15;;;5.93;;
33403;SDS011;19751;40.274;18.268;2022-11-20T04:45:58;24.77;;;4.35;;
33403;SDS011;19751;40.274;18.268;2022-11-20T04:48:25;36.13;;;6.70;;
33403;SDS011;19751;40.274;18.268;2022-11-20T04:50:52;30.05;;;5.70;;
33403;SDS011;19751;40.274;18.268;2022-11-20T04:53:18;30.45;;;5.82;;
33403;SDS011;19751;40.274;18.268;2022-11-20T04:55:45;48.33;;;8.60;;
33403;SDS011;19751;40.274;18.268;2022-11-20T04:58:12;37.60;;;6.70;;
33403;SDS011;19751;40.274;18.268;2022-11-20T05:00:37;33.60;;;5.78;;
33403;SDS011;19751;40.274;18.268;2022-11-20T05:03:03;32.33;;;5.65;;
33403;SDS011;19751;40.274;18.268;2022-11-20T05:05:30;42.10;;;10.60;;
33403;SDS011;19751;40.274;18.268;2022-11-20T05:07:57;21.55;;;5.95;;
33403;SDS011;19751;40.274;18.268;2022-11-20T05:10:23;35.70;;;6.63;;
33403;SDS011;19751;40.274;18.268;2022-11-20T05:12:49;33.58;;;6.03;;
33403;SDS011;19751;40.274;18.268;2022-11-20T05:15:15;25.65;;;4.68;;
33403;SDS011;19751;40.274;18.268;2022-11-20T05:17:40;28.90;;;5.47;;
33403;SDS011;19751;40.274;18.268;2022-11-20T05:20:06;21.00;;;5.13;;
33403;SDS011;19751;40.274;18.268;2022-11-20T05:22:32;29.70;;;5.72;;
33403;SDS011;19751;40.274;18.268;2022-11-20T05:24:58;35.25;;;6.57;;
33403;SDS011;19751;40.274;18.268;2022-11-20T05:27:23;25.23;;;6.90;;
33403;SDS011;19751;40.274;18.268;2022-11-20T05:29:49;21.25;;;5.10;;
33403;SDS011;19751;40.274;18.268;2022-11-20T05:32:15;27.60;;;5.82;;
33403;SDS011;19751;40.274;18.268;2022-11-20T05:34:40;35.20;;;5.82;;
33403;SDS011;19751;40.274;18.268;2022-11-20T05:37:06;24.45;;;4.45;;
33403;SDS011;19751;40.274;18.268;2022-11-20T05:39:31;26.02;;;4.85;;
33403;SDS011;19751;40.274;18.268;2022-11-20T05:41:58;23.15;;;4.25;;
33403;SDS011;19751;40.274;18.268;2022-11-20T05:44:42;19.42;;;4.05;;
33403;SDS011;19751;40.274;18.268;2022-11-20T05:47:08;16.00;;;4.05;;
33403;SDS011;19751;40.274;18.268;2022-11-20T05:49:34;20.08;;;3.70;;
33403;SDS011;19751;40.274;18.268;2022-11-20T05:51:59;13.85;;;3.13;;
33403;SDS011;19751;40.274;18.268;2022-11-20T05:54:25;11.43;;;3.08;;
33403;SDS011;19751;40.274;18.268;2022-11-20T05:56:50;13.23;;;2.80;;
33403;SDS011;19751;40.274;18.268;2022-11-20T05:59:16;19.02;;;4.18;;
33403;SDS011;19751;40.274;18.268;2022-11-20T06:01:41;11.70;;;3.28;;
33403;SDS011;19751;40.274;18.268;2022-11-20T06:04:09;16.42;;;3.53;;
33403;SDS011;19751;40.274;18.268;2022-11-20T06:06:35;14.95;;;3.97;;
33403;SDS011;19751;40.274;18.268;2022-11-20T06:09:00;15.82;;;4.78;;
33403;SDS011;19751;40.274;18.268;2022-11-20T06:11:26;14.02;;;3.33;;
33403;SDS011;19751;40.274;18.268;2022-11-20T06:13:52;22.70;;;4.13;;
33403;SDS011;19751;40.274;18.268;2022-11-20T06:16:18;16.00;;;3.20;;
33403;SDS011;19751;40.274;18.268;2022-11-20T06:18:45;17.17;;;3.42;;
33403;SDS011;19751;40.274;18.268;2022-11-20T06:21:18;23.67;;;4.28;;
33403;SDS011;19751;40.274;18.268;2022-11-20T06:23:46;13.02;;;3.42;;
33403;SDS011;19751;40.274;18.268;2022-11-20T06:26:14;16.98;;;4.15;;
33403;SDS011;19751;40.274;18.268;2022-11-20T06:28:42;21.52;;;3.58;;
33403;SDS011;19751;40.274;18.268;2022-11-20T06:31:10;9.73;;;3.30;;
33403;SDS011;19751;40.274;18.268;2022-11-20T06:33:36;13.32;;;2.97;;
33403;SDS011;19751;40.274;18.268;2022-11-20T06:36:03;13.63;;;2.95;;
33403;SDS011;19751;40.274;18.268;2022-11-20T06:38:29;8.15;;;2.20;;
33403;SDS011;19751;40.274;18.268;2022-11-20T06:40:55;10.15;;;3.33;;
33403;SDS011;19751;40.274;18.268;2022-11-20T06:43:21;15.20;;;3.28;;
33403;SDS011;19751;40.274;18.268;2022-11-20T06:45:55;5.55;;;1.85;;
33403;SDS011;19751;40.274;18.268;2022-11-20T06:48:22;7.32;;;2.00;;
33403;SDS011;19751;40.274;18.268;2022-11-20T06:50:49;6.95;;;2.17;;
33403;SDS011;19751;40.274;18.268;2022-11-20T06:53:15;8.45;;;2.35;;
33403;SDS011;19751;40.274;18.268;2022-11-20T06:55:44;9.55;;;2.53;;
33403;SDS011;19751;40.274;18.268;2022-11-20T06:58:11;11.70;;;3.28;;
33403;SDS011;19751;40.274;18.268;2022-11-20T07:00:39;13.02;;;3.28;;
33403;SDS011;19751;40.274;18.268;2022-11-20T07:03:05;12.93;;;3.65;;
33403;SDS011;19751;40.274;18.268;2022-11-20T07:05:33;8.43;;;2.58;;
33403;SDS011;19751;40.274;18.268;2022-11-20T07:08:02;16.80;;;2.30;;
33403;SDS011;19751;40.274;18.268;2022-11-20T07:10:28;10.45;;;2.58;;
33403;SDS011;19751;40.274;18.268;2022-11-20T07:12:54;9.43;;;2.65;;
33403;SDS011;19751;40.274;18.268;2022-11-20T07:15:20;11.57;;;4.07;;
33403;SDS011;19751;40.274;18.268;2022-11-20T07:17:47;7.22;;;2.22;;
33403;SDS011;19751;40.274;18.268;2022-11-20T07:20:13;10.95;;;2.53;;
33403;SDS011;19751;40.274;18.268;2022-11-20T07:22:39;17.42;;;3.10;;
33403;SDS011;19751;40.274;18.268;2022-11-20T07:25:05;5.50;;;2.40;;
33403;SDS011;19751;40.274;18.268;2022-11-20T07:27:31;7.30;;;2.30;;
33403;SDS011;19751;40.274;18.268;2022-11-20T07:29:57;15.00;;;2.75;;
33403;SDS011;19751;40.274;18.268;2022-11-20T07:32:23;10.43;;;2.30;;
33403;SDS011;19751;40.274;18.268;2022-11-20T07:34:49;12.90;;;2.83;;
33403;SDS011;19751;40.274;18.268;2022-11-20T07:37:15;6.90;;;1.90;;
33403;SDS011;19751;40.274;18.268;2022-11-20T07:39:41;7.95;;;1.75;;
33403;SDS011;19751;40.274;18.268;2022-11-20T07:42:07;4.70;;;1.77;;
33403;SDS011;19751;40.274;18.268;2022-11-20T07:44:33;9.98;;;3.90;;
33403;SDS011;19751;40.274;18.268;2022-11-20T07:46:59;8.07;;;2.58;;
33403;SDS011;19751;40.274;18.268;2022-11-20T07:49:25;9.60;;;2.78;;
33403;SDS011;19751;40.274;18.268;2022-11-20T07:51:52;7.28;;;2.65;;
33403;SDS011;19751;40.274;18.268;2022-11-20T07:54:20;16.17;;;3.38;;
33403;SDS011;19751;40.274;18.268;2022-11-20T07:56:47;8.38;;;2.92;;
33403;SDS011;19751;40.274;18.268;2022-11-20T07:59:13;9.05;;;3.80;;
33403;SDS011;19751;40.274;18.268;2022-11-20T08:01:39;7.40;;;3.15;;
33403;SDS011;19751;40.274;18.268;2022-11-20T08:04:05;9.48;;;2.25;;
33403;SDS011;19751;40.274;18.268;2022-11-20T08:06:32;6.65;;;2.25;;
33403;SDS011;19751;40.274;18.268;2022-11-20T08:08:58;8.55;;;2.60;;
33403;SDS011;19751;40.274;18.268;2022-11-20T08:11:24;5.25;;;1.58;;
33403;SDS011;19751;40.274;18.268;2022-11-20T08:14:08;6.07;;;2.08;;
33403;SDS011;19751;40.274;18.268;2022-11-20T08:16:44;3.53;;;1.67;;
33403;SDS011;19751;40.274;18.268;2022-11-20T08:19:14;5.60;;;2.30;;
33403;SDS011;19751;40.274;18.268;2022-11-20T08:21:41;8.93;;;2.13;;
33403;SDS011;19751;40.274;18.268;2022-11-20T08:24:07;4.85;;;2.30;;
33403;SDS011;19751;40.274;18.268;2022-11-20T08:26:34;12.52;;;3.72;;
33403;SDS011;19751;40.274;18.268;2022-11-20T08:29:01;9.93;;;2.63;;
33403;SDS011;19751;40.274;18.268;2022-11-20T08:31:26;10.75;;;2.30;;
33403;SDS011;19751;40.274;18.268;2022-11-20T08:33:53;8.85;;;2.95;;
33403;SDS011;19751;40.274;18.268;2022-11-20T08:36:19;9.93;;;2.92;;
33403;SDS011;19751;40.274;18.268;2022-11-20T08:38:52;5.43;;;2.58;;
33403;SDS011;19751;40.274;18.268;2022-11-20T08:41:20;9.75;;;3.90;;
33403;SDS011;19751;40.274;18.268;2022-11-20T08:43:56;15.90;;;5.15;;
33403;SDS011;19751;40.274;18.268;2022-11-20T08:46:30;16.13;;;4.28;;
33403;SDS011;19751;40.274;18.268;2022-11-20T08:49:17;6.57;;;2.47;;
33403;SDS011;19751;40.274;18.268;2022-11-20T08:51:43;9.88;;;2.70;;
33403;SDS011;19751;40.274;18.268;2022-11-20T08:54:11;5.38;;;1.85;;
33403;SDS011;19751;40.274;18.268;2022-11-20T08:56:43;19.00;;;2.40;;
33403;SDS011;19751;40.274;18.268;2022-11-20T08:59:08;6.40;;;1.60;;
33403;SDS011;19751;40.274;18.268;2022-11-20T09:01:34;12.43;;;3.53;;
33403;SDS011;19751;40.274;18.268;2022-11-20T09:04:00;5.88;;;3.70;;
33403;SDS011;19751;40.274;18.268;2022-11-20T09:06:25;8.68;;;2.72;;
33403;SDS011;19751;40.274;18.268;2022-11-20T09:08:52;6.00;;;2.10;;
33403;SDS011;19751;40.274;18.268;2022-11-20T09:11:20;3.45;;;1.67;;
33403;SDS011;19751;40.274;18.268;2022-11-20T09:13:46;3.25;;;1.48;;
33403;SDS011;19751;40.274;18.268;2022-11-20T09:16:14;5.15;;;1.63;;
33403;SDS011;19751;40.274;18.268;2022-11-20T09:18:40;8.93;;;1.65;;
33403;SDS011;19751;40.274;18.268;2022-11-20T09:21:08;4.22;;;1.60;;
33403;SDS011;19751;40.274;18.268;2022-11-20T09:23:36;5.28;;;1.75;;
33403;SDS011;19751;40.274;18.268;2022-11-20T09:26:08;12.95;;;2.85;;
33403;SDS011;19751;40.274;18.268;2022-11-20T09:28:38;9.10;;;1.80;;
33403;SDS011;19751;40.274;18.268;2022-11-20T09:31:05;8.98;;;2.30;;
33403;SDS011;19751;40.274;18.268;2022-11-20T09:33:31;10.63;;;1.75;;
33403;SDS011;19751;40.274;18.268;2022-11-20T09:35:57;10.05;;;1.95;;
33403;SDS011;19751;40.274;18.268;2022-11-20T09:38:23;8.02;;;1.25;;
33403;SDS011;19751;40.274;18.268;2022-11-20T09:41:06;11.68;;;3.22;;
33403;SDS011;19751;40.274;18.268;2022-11-20T09:54:27;14.90;;;4.43;;
33403;SDS011;19751;40.274;18.268;2022-11-20T09:57:01;13.30;;;2.00;;
33403;SDS011;19751;40.274;18.268;2022-11-20T09:59:38;12.80;;;2.33;;
33403;SDS011;19751;40.274;18.268;2022-11-20T10:04:53;13.30;;;4.55;;
33403;SDS011;19751;40.274;18.268;2022-11-20T10:07:29;8.20;;;3.00;;
33403;SDS011;19751;40.274;18.268;2022-11-20T10:10:43;11.13;;;3.03;;
33403;SDS011;19751;40.274;18.268;2022-11-20T10:13:22;9.80;;;2.03;;
33403;SDS011;19751;40.274;18.268;2022-11-20T10:16:21;13.35;;;2.25;;
33403;SDS011;19751;40.274;18.268;2022-11-20T10:24:42;12.93;;;4.88;;
33403;SDS011;19751;40.274;18.268;2022-11-20T10:32:31;6.18;;;3.03;;
33403;SDS011;19751;40.274;18.268;2022-11-20T10:35:07;13.32;;;3.20;;
33403;SDS011;19751;40.274;18.268;2022-11-20T10:37:46;7.43;;;1.73;;
33403;SDS011;19751;40.274;18.268;2022-11-20T10:40:25;10.25;;;3.15;;
33403;SDS011;19751;40.274;18.268;2022-11-20T10:42:57;6.00;;;2.83;;
33403;SDS011;19751;40.274;18.268;2022-11-20T10:50:57;6.93;;;2.80;;
33403;SDS011;19751;40.274;18.268;2022-11-20T10:53:54;6.13;;;1.92;;
33403;SDS011;19751;40.274;18.268;2022-11-20T10:59:25;6.25;;;1.42;;
33403;SDS011;19751;40.274;18.268;2022-11-20T11:02:29;4.28;;;1.38;;
33403;SDS011;19751;40.274;18.268;2022-11-20T11:04:50;8.93;;;2.00;;
33403;SDS011;19751;40.274;18.268;2022-11-20T11:09:52;5.68;;;1.90;;
33403;SDS011;19751;40.274;18.268;2022-11-20T11:12:21;4.60;;;1.48;;
33403;SDS011;19751;40.274;18.268;2022-11-20T11:14:53;6.63;;;1.30;;
33403;SDS011;19751;40.274;18.268;2022-11-20T11:17:24;8.43;;;2.97;;
33403;SDS011;19751;40.274;18.268;2022-11-20T11:22:57;6.05;;;1.52;;
33403;SDS011;19751;40.274;18.268;2022-11-20T11:28:01;5.53;;;1.30;;
33403;SDS011;19751;40.274;18.268;2022-11-20T11:30:45;6.35;;;1.40;;
33403;SDS011;19751;40.274;18.268;2022-11-20T11:33:22;4.00;;;1.27;;
33403;SDS011;19751;40.274;18.268;2022-11-20T11:35:54;4.53;;;1.05;;
33403;SDS011;19751;40.274;18.268;2022-11-20T11:41:04;4.57;;;1.05;;
33403;SDS011;19751;40.274;18.268;2022-11-20T11:43:34;4.60;;;1.60;;
33403;SDS011;19751;40.274;18.268;2022-11-20T11:49:01;4.15;;;1.55;;
33403;SDS011;19751;40.274;18.268;2022-11-20T11:54:46;5.05;;;1.05;;
33403;SDS011;19751;40.274;18.268;2022-11-20T12:07:58;7.30;;;1.60;;
33403;SDS011;19751;40.274;18.268;2022-11-20T12:13:20;9.02;;;4.45;;
33403;SDS011;19751;40.274;18.268;2022-11-20T12:16:00;11.00;;;3.97;;
33403;SDS011;19751;40.274;18.268;2022-11-20T12:18:31;11.77;;;5.35;;
33403;SDS011;19751;40.274;18.268;2022-11-20T12:21:18;10.05;;;3.22;;
33403;SDS011;19751;40.274;18.268;2022-11-20T12:24:05;5.95;;;1.50;;
33403;SDS011;19751;40.274;18.268;2022-11-20T12:43:27;10.30;;;2.10;;
33403;SDS011;19751;40.274;18.268;2022-11-20T12:49:15;9.40;;;4.93;;
33403;SDS011;19751;40.274;18.268;2022-11-20T12:57:43;49.83;;;24.00;;
33403;SDS011;19751;40.274;18.268;2022-11-20T13:00:10;24.80;;;13.05;;
33403;SDS011;19751;40.274;18.268;2022-11-20T13:02:52;12.77;;;4.72;;
33403;SDS011;19751;40.274;18.268;2022-11-20T13:08:01;8.95;;;2.70;;
33403;SDS011;19751;40.274;18.268;2022-11-20T13:13:12;7.57;;;3.05;;
33403;SDS011;19751;40.274;18.268;2022-11-20T13:16:07;11.57;;;2.15;;
33403;SDS011;19751;40.274;18.268;2022-11-20T13:18:45;5.07;;;1.60;;
33403;SDS011;19751;40.274;18.268;2022-11-20T13:21:15;6.82;;;2.00;;
33403;SDS011;19751;40.274;18.268;2022-11-20T13:23:40;6.53;;;0.98;;
33403;SDS011;19751;40.274;18.268;2022-11-20T13:26:14;7.47;;;1.73;;
33403;SDS011;19751;40.274;18.268;2022-11-20T13:28:40;8.98;;;1.90;;
33403;SDS011;19751;40.274;18.268;2022-11-20T13:31:09;4.82;;;1.40;;
33403;SDS011;19751;40.274;18.268;2022-11-20T13:34:02;6.22;;;1.58;;
33403;SDS011;19751;40.274;18.268;2022-11-20T13:36:30;6.35;;;2.33;;
33403;SDS011;19751;40.274;18.268;2022-11-20T13:38:57;18.08;;;7.45;;
33403;SDS011;19751;40.274;18.268;2022-11-20T13:41:30;22.38;;;8.10;;
33403;SDS011;19751;40.274;18.268;2022-11-20T13:46:48;7.70;;;1.80;;
33403;SDS011;19751;40.274;18.268;2022-11-20T13:49:25;7.00;;;1.90;;
33403;SDS011;19751;40.274;18.268;2022-11-20T13:51:51;12.32;;;4.07;;
33403;SDS011;19751;40.274;18.268;2022-11-20T13:59:58;13.02;;;4.30;;
33403;SDS011;19751;40.274;18.268;2022-11-20T14:06:01;10.60;;;4.22;;
33403;SDS011;19751;40.274;18.268;2022-11-20T14:08:45;7.82;;;3.38;;
33403;SDS011;19751;40.274;18.268;2022-11-20T14:11:23;9.63;;;2.55;;
33403;SDS011;19751;40.274;18.268;2022-11-20T14:16:44;14.75;;;3.72;;
33403;SDS011;19751;40.274;18.268;2022-11-20T14:19:21;10.57;;;2.70;;
33403;SDS011;19751;40.274;18.268;2022-11-20T14:21:52;11.15;;;3.88;;
33403;SDS011;19751;40.274;18.268;2022-11-20T14:24:35;11.50;;;2.60;;
33403;SDS011;19751;40.274;18.268;2022-11-20T14:27:02;9.15;;;3.15;;
33403;SDS011;19751;40.274;18.268;2022-11-20T14:29:36;12.25;;;2.92;;
33403;SDS011;19751;40.274;18.268;2022-11-20T14:32:03;11.40;;;2.75;;
33403;SDS011;19751;40.274;18.268;2022-11-20T14:34:30;10.13;;;3.95;;
33403;SDS011;19751;40.274;18.268;2022-11-20T14:37:02;6.10;;;2.20;;
33403;SDS011;19751;40.274;18.268;2022-11-20T14:39:31;11.35;;;3.08;;
33403;SDS011;19751;40.274;18.268;2022-11-20T14:41:59;8.27;;;2.83;;
33403;SDS011;19751;40.274;18.268;2022-11-20T14:44:32;8.45;;;2.92;;
33403;SDS011;19751;40.274;18.268;2022-11-20T14:46:59;11.23;;;2.00;;
33403;SDS011;19751;40.274;18.268;2022-11-20T14:49:27;8.30;;;2.42;;
33403;SDS011;19751;40.274;18.268;2022-11-20T14:52:09;6.88;;;1.83;;
33403;SDS011;19751;40.274;18.268;2022-11-20T14:54:47;3.00;;;0.95;;
33403;SDS011;19751;40.274;18.268;2022-11-20T14:57:27;6.30;;;1.10;;
33403;SDS011;19751;40.274;18.268;2022-11-20T15:02:45;4.18;;;1.27;;
33403;SDS011;19751;40.274;18.268;2022-11-20T15:05:12;2.72;;;0.70;;
33403;SDS011;19751;40.274;18.268;2022-11-20T15:07:41;7.95;;;1.38;;
33403;SDS011;19751;40.274;18.268;2022-11-20T15:10:12;5.03;;;0.95;;
33403;SDS011;19751;40.274;18.268;2022-11-20T15:12:53;17.48;;;1.95;;
33403;SDS011;19751;40.274;18.268;2022-11-20T15:15:35;9.30;;;2.33;;
33403;SDS011;19751;40.274;18.268;2022-11-20T15:18:09;10.65;;;2.15;;
33403;SDS011;19751;40.274;18.268;2022-11-20T15:20:41;9.02;;;2.50;;
33403;SDS011;19751;40.274;18.268;2022-11-20T15:23:14;17.13;;;2.40;;
33403;SDS011;19751;40.274;18.268;2022-11-20T15:25:42;11.82;;;2.00;;
33403;SDS011;19751;40.274;18.268;2022-11-20T15:28:51;13.63;;;2.28;;
33403;SDS011;19751;40.274;18.268;2022-11-20T15:31:14;16.15;;;3.20;;
33403;SDS011;19751;40.274;18.268;2022-11-20T15:33:42;12.07;;;1.65;;
33403;SDS011;19751;40.274;18.268;2022-11-20T15:36:08;6.68;;;1.30;;
33403;SDS011;19751;40.274;18.268;2022-11-20T15:38:34;3.55;;;1.20;;
33403;SDS011;19751;40.274;18.268;2022-11-20T15:41:02;6.82;;;2.05;;
33403;SDS011;19751;40.274;18.268;2022-11-20T15:43:31;4.68;;;1.13;;
33403;SDS011;19751;40.274;18.268;2022-11-20T15:46:02;10.55;;;1.35;;
33403;SDS011;19751;40.274;18.268;2022-11-20T15:48:41;6.68;;;1.33;;
33403;SDS011;19751;40.274;18.268;2022-11-20T15:53:35;8.63;;;1.40;;
33403;SDS011;19751;40.274;18.268;2022-11-20T15:56:16;6.47;;;1.48;;
33403;SDS011;19751;40.274;18.268;2022-11-20T15:58:48;5.63;;;1.85;;
33403;SDS011;19751;40.274;18.268;2022-11-20T16:01:15;10.60;;;2.08;;
33403;SDS011;19751;40.274;18.268;2022-11-20T16:03:43;5.07;;;1.67;;
33403;SDS011;19751;40.274;18.268;2022-11-20T16:06:15;10.63;;;1.85;;
33403;SDS011;19751;40.274;18.268;2022-11-20T16:08:43;10.98;;;2.42;;
33403;SDS011;19751;40.274;18.268;2022-11-20T16:11:12;8.13;;;2.78;;
33403;SDS011;19751;40.274;18.268;2022-11-20T16:13:42;17.23;;;3.30;;
33403;SDS011;19751;40.274;18.268;2022-11-20T16:16:34;11.18;;;2.58;;
33403;SDS011;19751;40.274;18.268;2022-11-20T16:19:01;5.93;;;3.08;;
33403;SDS011;19751;40.274;18.268;2022-11-20T16:21:28;8.45;;;2.08;;
33403;SDS011;19751;40.274;18.268;2022-11-20T16:24:02;5.32;;;1.50;;
33403;SDS011;19751;40.274;18.268;2022-11-20T16:26:29;5.32;;;1.60;;
33403;SDS011;19751;40.274;18.268;2022-11-20T16:28:56;10.68;;;1.35;;
33403;SDS011;19751;40.274;18.268;2022-11-20T16:31:24;8.90;;;1.77;;
33403;SDS011;19751;40.274;18.268;2022-11-20T16:33:57;7.63;;;1.73;;
33403;SDS011;19751;40.274;18.268;2022-11-20T16:36:26;9.98;;;1.80;;
33403;SDS011;19751;40.274;18.268;2022-11-20T16:39:00;4.60;;;1.20;;
33403;SDS011;19751;40.274;18.268;2022-11-20T16:41:32;15.55;;;2.15;;
33403;SDS011;19751;40.274;18.268;2022-11-20T16:44:00;7.78;;;1.52;;